Clarington, Ohio
Current Conditions -  °F | °C
As of 11:53 PM on Monday 20 Oct 2014 (Local Time) from KHLG Reporting Station
Overcast Overcast  
Wind Chill: 51°   Ceiling: 4800
Heat Index: 51°   Visibility: 10mi
Dew Point: 46°   Wind: 8mph
Humidity: 83%   Direction: 230°SW
Pressure: 29.87"   Gusts: NA
Location:  39.77°N, 80.87°W
Report Text: KHLG 210353Z AUTO 23007KT 10SM BKN048 OVC060 11/08 A2987 RMK AO2 RAE08 SLP119 P0000 T01060078
Loading
Personal Weather Stations






























Interactive Weather Map
Tropical Storm Tracking
New forecast layout! Learn more

10-Day Weather Forecast

Advertisements
Track Severe Weather on mobile